createdAt,value
2019-04-30T00:02:06.629Z,10.13
2019-04-30T00:07:15.506Z,14.20
2019-04-30T00:12:18.507Z,13.00
2019-04-30T00:17:23.344Z,20.77
2019-04-30T00:22:33.766Z,15.80
2019-04-30T00:27:35.634Z,18.60
2019-04-30T00:32:43.823Z,32.70
2019-04-30T00:37:52.005Z,23.77
2019-04-30T00:42:55.993Z,12.90
2019-04-30T00:48:01.916Z,8.50
2019-04-30T00:53:12.563Z,11.87
2019-04-30T00:58:17.675Z,15.77
2019-04-30T01:03:30.546Z,15.23
2019-04-30T01:08:35.848Z,14.23
2019-04-30T01:13:45.618Z,15.37
2019-04-30T01:18:49.156Z,14.30
2019-04-30T01:23:54.869Z,28.87
2019-04-30T01:29:02.077Z,22.80
2019-04-30T01:34:10.379Z,23.27
2019-04-30T01:39:13.418Z,17.03
2019-04-30T01:44:19.517Z,28.00
2019-04-30T01:49:26.658Z,34.43
2019-04-30T01:54:31.097Z,44.17
2019-04-30T01:59:48.574Z,53.47
2019-04-30T02:04:52.842Z,30.33
2019-04-30T02:09:58.759Z,30.20
2019-04-30T02:15:03.952Z,20.93
2019-04-30T02:20:08.955Z,20.60
2019-04-30T02:25:13.877Z,17.37
2019-04-30T02:30:20.843Z,36.17
2019-04-30T02:35:29.769Z,36.83
2019-04-30T02:40:39.332Z,58.97
2019-04-30T02:45:49.609Z,19.77
2019-04-30T02:50:55.734Z,15.70
2019-04-30T02:56:02.588Z,13.43
2019-04-30T03:01:07.081Z,12.23
2019-04-30T03:06:11.933Z,10.07
2019-04-30T03:11:16.787Z,14.27
2019-04-30T03:16:25.978Z,33.20
2019-04-30T03:21:50.269Z,36.03
2019-04-30T03:26:54.919Z,82.07
2019-04-30T03:32:02.632Z,131.43
2019-04-30T03:37:06.196Z,46.23
2019-04-30T03:42:11.818Z,39.00
2019-04-30T03:47:16.576Z,33.47
2019-04-30T03:52:21.367Z,26.97
2019-04-30T03:57:26.163Z,33.57
2019-04-30T04:02:32.990Z,14.60
2019-04-30T04:07:42.236Z,37.73
2019-04-30T04:12:49.614Z,16.67
2019-04-30T04:17:53.661Z,33.27
2019-04-30T04:22:59.834Z,16.03
2019-04-30T04:28:04.992Z,24.13
2019-04-30T04:33:10.227Z,51.50
2019-04-30T04:38:15.375Z,68.03
2019-04-30T04:43:20.571Z,19.40
2019-04-30T04:48:25.420Z,19.60
2019-04-30T04:53:30.612Z,27.23
2019-04-30T04:58:36.150Z,18.20
2019-04-30T05:03:41.069Z,19.57
2019-04-30T05:08:45.920Z,21.63
2019-04-30T05:13:50.705Z,10.60
2019-04-30T05:18:55.553Z,9.47
2019-04-30T05:24:00.397Z,14.60
2019-04-30T05:29:05.241Z,12.93
2019-04-30T05:34:10.274Z,11.80
2019-04-30T05:39:15.302Z,11.50
2019-04-30T05:44:20.697Z,17.20
2019-04-30T05:49:25.472Z,15.07
2019-04-30T05:54:30.327Z,18.37
2019-04-30T05:59:35.194Z,14.20
2019-04-30T06:04:40.041Z,17.47
2019-04-30T06:09:48.459Z,13.07
2019-04-30T06:14:58.996Z,11.47
2019-04-30T06:20:16.171Z,10.97
2019-04-30T06:25:13.186Z,8.80
2019-04-30T06:30:19.802Z,19.33
2019-04-30T06:35:25.383Z,14.40
2019-04-30T06:40:30.251Z,12.83
2019-04-30T06:45:38.773Z,9.77
2019-04-30T06:50:43.844Z,12.37
2019-04-30T06:55:49.226Z,11.70
2019-04-30T07:00:54.331Z,17.07
2019-04-30T07:05:59.336Z,16.47
2019-04-30T07:11:24.349Z,10.27
2019-04-30T07:16:29.838Z,12.20
2019-04-30T07:21:36.595Z,11.13
2019-04-30T07:26:41.538Z,10.63
2019-04-30T07:31:46.460Z,10.80
2019-04-30T07:37:10.400Z,11.43
2019-04-30T07:41:59.951Z,13.47
2019-04-30T07:47:04.435Z,19.97
2019-04-30T07:52:11.491Z,12.50
2019-04-30T07:57:15.655Z,13.27
2019-04-30T08:02:20.929Z,12.63
2019-04-30T08:07:26.007Z,8.70
2019-04-30T08:12:35.730Z,10.80
2019-04-30T08:17:38.903Z,9.53
2019-04-30T08:22:43.882Z,11.40
2019-04-30T08:27:49.873Z,11.77
2019-04-30T08:32:54.746Z,14.37
2019-04-30T08:37:59.610Z,7.77
2019-04-30T08:43:05.038Z,14.40
2019-04-30T08:48:09.891Z,9.20
2019-04-30T08:53:27.577Z,9.23
2019-04-30T08:58:23.860Z,13.67
2019-04-30T09:03:29.631Z,12.27
2019-04-30T09:08:36.812Z,6.30
2019-04-30T09:13:41.860Z,12.23
2019-04-30T09:18:46.917Z,12.47
2019-04-30T09:23:52.807Z,10.80
2019-04-30T09:28:59.275Z,8.90
2019-04-30T09:34:14.342Z,18.97
2019-04-30T09:39:11.262Z,14.03
2019-04-30T09:44:16.228Z,10.33
2019-04-30T09:49:21.158Z,14.77
2019-04-30T09:54:26.014Z,11.70
2019-04-30T09:59:31.578Z,11.70
2019-04-30T10:04:36.659Z,20.93
2019-04-30T10:09:41.977Z,14.17
2019-04-30T10:14:46.832Z,15.97
2019-04-30T10:19:51.692Z,13.27
2019-04-30T10:24:56.542Z,16.93
2019-04-30T10:30:01.392Z,11.77
2019-04-30T10:35:07.345Z,11.23
2019-04-30T10:40:12.329Z,9.40
2019-04-30T10:45:18.610Z,14.07
2019-04-30T10:50:24.669Z,8.10
2019-04-30T10:55:31.114Z,8.57
2019-04-30T11:00:49.717Z,15.37
2019-04-30T11:05:55.321Z,7.83
2019-04-30T11:11:00.257Z,11.80
2019-04-30T11:16:12.622Z,9.30
2019-04-30T11:21:13.178Z,9.13
2019-04-30T11:26:18.627Z,14.30
2019-04-30T11:31:25.979Z,5.30
2019-04-30T11:36:31.074Z,7.47
2019-04-30T11:41:35.933Z,10.30
2019-04-30T11:47:09.364Z,6.47
2019-04-30T11:52:14.278Z,16.27
2019-04-30T11:57:19.203Z,10.53
2019-04-30T12:02:25.720Z,11.53
2019-04-30T12:07:34.912Z,5.20
2019-04-30T12:12:39.736Z,6.93
2019-04-30T12:17:44.587Z,5.67
2019-04-30T12:22:50.005Z,8.03
2019-04-30T12:27:54.775Z,6.63
2019-04-30T12:32:59.604Z,14.60
2019-04-30T12:38:04.442Z,12.00
2019-04-30T12:43:10.016Z,10.37
2019-04-30T12:48:18.611Z,12.00
2019-04-30T12:53:27.585Z,8.27
2019-04-30T12:58:32.489Z,11.47
2019-04-30T13:03:37.324Z,20.73
2019-04-30T13:08:42.606Z,7.53
2019-04-30T13:13:49.970Z,8.50
2019-04-30T13:18:54.261Z,9.03
2019-04-30T13:23:59.087Z,10.23
2019-04-30T13:29:11.899Z,13.70
2019-04-30T13:34:34.545Z,11.03
2019-04-30T13:39:53.030Z,6.90
2019-04-30T13:44:56.504Z,10.37
2019-04-30T13:50:01.350Z,10.03
2019-04-30T13:55:10.736Z,6.17
2019-04-30T14:00:18.781Z,7.30
2019-04-30T14:05:23.681Z,8.40
2019-04-30T14:10:30.248Z,11.50
2019-04-30T14:15:35.753Z,8.87
2019-04-30T14:20:40.576Z,6.57
2019-04-30T14:25:55.917Z,20.73
2019-04-30T14:30:51.859Z,9.87
2019-04-30T14:35:56.681Z,6.33
2019-04-30T14:41:02.194Z,5.27
2019-04-30T14:46:25.670Z,13.83
2019-04-30T14:51:31.001Z,9.07
2019-04-30T14:56:52.747Z,9.03
2019-04-30T15:02:01.948Z,6.47
2019-04-30T15:07:06.791Z,10.10
2019-04-30T15:12:11.608Z,7.53
2019-04-30T15:17:16.447Z,8.77
2019-04-30T15:22:21.280Z,12.87
2019-04-30T15:27:26.105Z,8.00
2019-04-30T15:32:31.019Z,14.07
2019-04-30T15:37:38.565Z,4.20
2019-04-30T15:42:45.297Z,11.20
2019-04-30T15:47:50.150Z,10.03
2019-04-30T15:52:54.983Z,6.40
2019-04-30T15:58:10.566Z,3.33
2019-04-30T16:03:19.743Z,5.77
2019-04-30T16:08:29.259Z,8.30
2019-04-30T16:13:51.962Z,6.67
2019-04-30T16:18:58.686Z,9.27
2019-04-30T16:24:03.522Z,6.27
2019-04-30T16:29:09.925Z,11.53
2019-04-30T16:34:15.690Z,5.27
2019-04-30T16:39:20.523Z,13.07
2019-04-30T16:44:25.354Z,11.60
2019-04-30T16:49:30.196Z,11.37
2019-04-30T16:54:35.123Z,9.87
2019-04-30T16:59:41.531Z,12.00
2019-04-30T17:04:57.196Z,14.90
2019-04-30T17:10:18.903Z,9.97
2019-04-30T17:15:25.611Z,15.80
2019-04-30T17:20:30.448Z,18.90
2019-04-30T17:25:35.280Z,15.87
2019-04-30T17:30:40.197Z,13.80
2019-04-30T17:35:45.050Z,8.83
2019-04-30T17:40:49.981Z,10.73
2019-04-30T17:45:54.874Z,9.57
2019-04-30T17:50:59.737Z,11.33
2019-04-30T17:56:04.962Z,8.77
2019-04-30T18:01:10.941Z,19.27
2019-04-30T18:06:15.868Z,26.33
2019-04-30T18:11:20.823Z,11.20
2019-04-30T18:16:25.764Z,19.47
2019-04-30T18:21:34.976Z,13.47
2019-04-30T18:26:47.446Z,11.40
2019-04-30T18:31:52.376Z,14.83
2019-04-30T18:36:59.214Z,10.87
2019-04-30T18:42:03.713Z,30.37
2019-04-30T18:47:09.019Z,9.60
2019-04-30T18:52:14.100Z,18.00
2019-04-30T18:57:19.031Z,13.90
2019-04-30T19:02:23.880Z,24.70
2019-04-30T19:07:30.857Z,13.53
2019-04-30T19:12:38.995Z,12.40
2019-04-30T19:17:54.430Z,17.17
2019-04-30T19:22:59.342Z,10.37
2019-04-30T19:28:12.133Z,14.83
2019-04-30T19:33:10.629Z,11.20
2019-04-30T19:38:15.480Z,10.57
2019-04-30T19:43:20.333Z,18.07
2019-04-30T19:48:26.607Z,16.00
2019-04-30T19:53:31.391Z,14.03
2019-04-30T19:58:50.117Z,10.17
2019-04-30T20:03:44.600Z,14.23
2019-04-30T20:08:49.544Z,11.53
2019-04-30T20:13:54.432Z,22.27
2019-04-30T20:18:59.292Z,11.93
2019-04-30T20:24:04.273Z,10.87
2019-04-30T20:29:11.754Z,40.70
2019-04-30T20:34:16.595Z,50.70
2019-04-30T20:39:23.494Z,141.90
2019-04-30T20:44:29.072Z,126.33
2019-04-30T20:49:34.172Z,40.00
2019-04-30T20:54:39.075Z,61.10
2019-04-30T20:59:44.030Z,46.23
2019-04-30T21:04:48.868Z,40.87
2019-04-30T21:09:53.732Z,44.90
2019-04-30T21:14:59.610Z,56.33
2019-04-30T21:20:09.660Z,58.27
2019-04-30T21:25:13.978Z,61.63
2019-04-30T21:30:18.824Z,54.33
2019-04-30T21:35:25.369Z,38.43
2019-04-30T21:40:30.283Z,49.23
2019-04-30T21:45:35.136Z,37.60
2019-04-30T21:50:40.232Z,52.53
2019-04-30T21:55:45.078Z,49.60
2019-04-30T22:00:54.585Z,44.00
2019-04-30T22:05:59.495Z,50.50
2019-04-30T22:11:04.407Z,43.90
2019-04-30T22:16:09.245Z,48.57
2019-04-30T22:21:14.086Z,24.17
2019-04-30T22:26:18.855Z,22.60
2019-04-30T22:31:23.690Z,15.90
2019-04-30T22:36:35.922Z,17.30
2019-04-30T22:41:40.750Z,24.03
2019-04-30T22:46:45.576Z,10.20
2019-04-30T22:51:50.621Z,16.27
2019-04-30T22:56:55.449Z,10.97
2019-04-30T23:02:05.065Z,8.37
2019-04-30T23:07:09.898Z,16.80
2019-04-30T23:12:14.717Z,8.73
2019-04-30T23:17:19.486Z,8.97
2019-04-30T23:22:24.259Z,14.80
2019-04-30T23:27:29.090Z,7.70
2019-04-30T23:32:33.943Z,16.20
2019-04-30T23:37:38.778Z,14.20
2019-04-30T23:42:43.532Z,11.27
2019-04-30T23:47:48.365Z,17.47
2019-04-30T23:52:53.261Z,12.33
2019-04-30T23:57:58.023Z,10.87
